Time;durP1;ratioP1;P1;durP2;ratioP2;P2;SDS_P1;SDS_P2;PMS_P1;PMS_P2;Temp;Humidity;BMP_temperature;BMP_pressure;BME280_temperature;BME280_humidity;BME280_pressure;Samples;Min_cycle;Max_cycle;Signal;HPM_P1;HPM_P2
2022/06/18 00:00:59;;;;;;;3.87;3.40;;;16.00;65.70;;;;;;4179961;28;20187;-68
2022/06/18 00:03:00;;;;;;;3.50;3.17;;;16.00;64.80;;;;;;4180106;28;20176;-68
2022/06/18 00:05:00;;;;;;;4.20;3.47;;;16.10;64.60;;;;;;4179692;28;20200;-68
2022/06/18 00:07:05;;;;;;;4.83;3.73;;;16.10;65.10;;;;;;4179267;28;20270;-68
2022/06/18 00:09:06;;;;;;;3.70;3.37;;;16.10;64.40;;;;;;4180042;28;20184;-68
2022/06/18 00:13:41;;;;;;;2.90;2.70;;;16.20;64.80;;;;;;4179881;28;20218;-69
2022/06/18 00:15:42;;;;;;;3.47;3.07;;;16.20;64.50;;;;;;4178888;28;20208;-68
2022/06/18 00:17:44;;;;;;;4.40;3.40;;;16.20;65.00;;;;;;4179607;28;20206;-67
2022/06/18 00:19:46;;;;;;;5.27;3.43;;;16.00;65.90;;;;;;4179432;28;20176;-69
2022/06/18 00:21:47;;;;;;;4.93;3.53;;;15.90;66.00;;;;;;4179298;28;20215;-68
2022/06/18 00:23:47;;;;;;;3.73;3.43;;;15.90;66.50;;;;;;4179359;28;20595;-67
2022/06/18 00:25:51;;;;;;;4.23;3.60;;;15.90;66.50;;;;;;4178479;28;20206;-67
2022/06/18 00:27:51;;;;;;;3.87;3.47;;;15.80;67.10;;;;;;4178950;28;20176;-68
2022/06/18 00:29:52;;;;;;;6.23;3.37;;;15.80;67.40;;;;;;4179177;28;20180;-67
2022/06/18 00:31:52;;;;;;;3.50;3.20;;;15.80;67.90;;;;;;4179143;28;20647;-67
2022/06/18 00:33:53;;;;;;;5.83;3.47;;;15.80;68.00;;;;;;4179043;28;20227;-68
2022/06/18 00:35:58;;;;;;;5.33;3.60;;;15.80;68.10;;;;;;4178446;28;20204;-68
2022/06/18 00:38:04;;;;;;;4.20;3.43;;;15.80;67.70;;;;;;4179281;28;20690;-68
2022/06/18 00:40:30;;;;;;;3.60;3.17;;;15.70;68.20;;;;;;4179013;28;20273;-68
2022/06/18 00:42:31;;;;;;;4.97;3.30;;;15.80;68.10;;;;;;4178961;28;20186;-67
2022/06/18 00:44:37;;;;;;;3.53;3.23;;;15.80;67.80;;;;;;4178669;28;20184;-67
2022/06/18 00:47:01;;;;;;;4.13;3.60;;;15.70;68.10;;;;;;4163866;28;20287;-68
2022/06/18 00:49:15;;;;;;;5.50;3.17;;;15.70;68.20;;;;;;4162339;28;20184;-67
2022/06/18 00:51:23;;;;;;;3.83;3.40;;;15.70;68.20;;;;;;4162442;28;20203;-68
2022/06/18 00:53:36;;;;;;;3.07;2.73;;;15.60;68.70;;;;;;4162361;28;20184;-68
2022/06/18 00:55:45;;;;;;;4.03;3.10;;;15.60;69.40;;;;;;4161613;28;20208;-68
2022/06/18 00:58:18;;;;;;;3.80;3.20;;;15.60;69.20;;;;;;4162610;28;20180;-68
2022/06/18 01:00:44;;;;;;;4.90;3.23;;;15.50;69.30;;;;;;4161995;28;20193;-68
2022/06/18 01:02:47;;;;;;;5.67;4.03;;;15.40;70.10;;;;;;4162257;28;20216;-68
2022/06/18 01:04:48;;;;;;;4.07;3.77;;;15.30;70.40;;;;;;4162195;28;20188;-68
2022/06/18 01:06:51;;;;;;;4.43;3.47;;;15.40;70.40;;;;;;4163667;28;20193;-68
2022/06/18 01:09:05;;;;;;;2.97;2.67;;;15.40;69.40;;;;;;4165737;28;20205;-68
2022/06/18 01:11:19;;;;;;;6.53;3.00;;;15.50;68.90;;;;;;4165613;28;20793;-68
2022/06/18 01:13:23;;;;;;;4.53;3.40;;;15.50;68.80;;;;;;4165659;28;20287;-68
2022/06/18 01:15:24;;;;;;;3.13;2.80;;;15.50;68.00;;;;;;4164851;28;20220;-68
2022/06/18 01:17:25;;;;;;;3.63;3.33;;;15.50;67.90;;;;;;4164330;28;20177;-68
2022/06/18 01:19:31;;;;;;;3.27;2.97;;;15.50;67.50;;;;;;4165388;28;20184;-68
2022/06/18 01:21:40;;;;;;;3.93;3.23;;;15.50;68.00;;;;;;4165430;28;20197;-68
2022/06/18 01:23:50;;;;;;;3.40;3.10;;;15.50;68.20;;;;;;4165364;28;20750;-68
2022/06/18 01:25:54;;;;;;;4.40;3.00;;;15.50;68.30;;;;;;4164593;28;20211;-68
2022/06/18 01:27:56;;;;;;;3.53;3.23;;;15.50;68.30;;;;;;4165254;28;20246;-68
2022/06/18 01:29:56;;;;;;;4.03;3.30;;;15.40;68.70;;;;;;4165332;28;20193;-68
2022/06/18 01:31:58;;;;;;;3.53;3.23;;;15.40;68.80;;;;;;4165130;28;20223;-68
2022/06/18 01:33:59;;;;;;;3.50;3.20;;;15.30;69.70;;;;;;4165275;28;20182;-68
2022/06/18 01:36:03;;;;;;;3.60;3.23;;;15.30;70.40;;;;;;4172751;28;20650;-67
2022/06/18 01:38:04;;;;;;;3.67;3.37;;;15.20;70.60;;;;;;4181710;28;20191;-68
2022/06/18 01:40:08;;;;;;;4.40;3.30;;;15.20;70.80;;;;;;4182010;28;21265;-67
2022/06/18 01:42:43;;;;;;;3.53;3.10;;;15.20;70.90;;;;;;4181518;28;20176;-68
2022/06/18 01:44:58;;;;;;;3.97;3.27;;;15.20;70.60;;;;;;4180113;28;20195;-67
2022/06/18 01:47:07;;;;;;;4.93;3.20;;;15.20;70.60;;;;;;4181368;28;20705;-68
2022/06/18 01:49:11;;;;;;;3.40;3.10;;;15.10;70.80;;;;;;4181650;28;20241;-68
2022/06/18 01:51:19;;;;;;;3.50;3.20;;;15.10;70.60;;;;;;4181561;28;20719;-68
2022/06/18 01:53:31;;;;;;;3.43;3.07;;;15.10;70.80;;;;;;4181623;28;20265;-68
2022/06/18 01:55:48;;;;;;;3.40;3.10;;;15.10;70.70;;;;;;4180663;28;20207;-67
2022/06/18 01:58:00;;;;;;;4.57;3.17;;;15.10;70.40;;;;;;4181442;28;20215;-68
2022/06/18 02:00:12;;;;;;;3.27;2.97;;;15.20;70.60;;;;;;4181174;28;20678;-68
2022/06/18 02:02:13;;;;;;;3.37;3.07;;;15.10;70.70;;;;;;4181331;28;20647;-68
2022/06/18 02:04:17;;;;;;;3.57;3.10;;;15.10;71.00;;;;;;4181266;28;20187;-67
2022/06/18 02:06:18;;;;;;;3.97;3.57;;;15.00;71.00;;;;;;4180695;28;20754;-68
2022/06/18 02:08:19;;;;;;;4.90;3.43;;;15.00;71.20;;;;;;4181286;28;20180;-67
2022/06/18 02:10:26;;;;;;;3.53;3.23;;;15.00;71.10;;;;;;4178405;28;20195;-68
2022/06/18 02:12:34;;;;;;;3.33;3.03;;;15.00;71.40;;;;;;4181192;28;20273;-68
2022/06/18 02:14:37;;;;;;;3.40;3.10;;;15.00;71.80;;;;;;4181511;28;20617;-68
2022/06/18 02:16:45;;;;;;;5.27;3.50;;;15.00;71.70;;;;;;4180483;28;20203;-68
2022/06/18 02:18:47;;;;;;;3.40;3.10;;;14.90;72.40;;;;;;4180841;28;20188;-68
2022/06/18 02:20:51;;;;;;;3.63;3.30;;;14.80;72.60;;;;;;4180851;28;20188;-68
2022/06/18 02:22:55;;;;;;;3.07;2.87;;;14.80;72.80;;;;;;4181123;28;20215;-68
2022/06/18 02:24:57;;;;;;;5.20;3.20;;;14.80;72.70;;;;;;4181081;28;20207;-67
2022/06/18 02:26:58;;;;;;;3.23;3.03;;;14.70;72.90;;;;;;4171139;28;20222;-68
2022/06/18 02:28:59;;;;;;;6.23;3.07;;;14.70;73.80;;;;;;4175031;28;20219;-68
2022/06/18 02:31:02;;;;;;;3.17;2.83;;;14.70;73.70;;;;;;4180879;28;20180;-68
2022/06/18 02:33:12;;;;;;;5.37;3.37;;;14.70;73.00;;;;;;4180731;28;20196;-68
2022/06/18 02:35:14;;;;;;;3.73;3.40;;;14.60;73.40;;;;;;4180427;28;20846;-68
2022/06/18 02:37:22;;;;;;;3.93;3.50;;;14.70;73.50;;;;;;4180286;28;20180;-68
2022/06/18 02:39:28;;;;;;;3.80;3.30;;;14.70;73.20;;;;;;4180872;28;20204;-68
2022/06/18 02:41:28;;;;;;;3.87;3.43;;;14.60;73.50;;;;;;4180733;28;20203;-68
2022/06/18 02:43:29;;;;;;;4.17;3.70;;;14.70;73.60;;;;;;4180432;28;20255;-68
2022/06/18 02:45:31;;;;;;;5.13;3.33;;;14.70;73.50;;;;;;4180079;28;20226;-68
2022/06/18 02:47:33;;;;;;;3.80;3.40;;;14.70;73.60;;;;;;4180643;28;20199;-68
2022/06/18 02:49:38;;;;;;;3.63;3.33;;;14.60;73.60;;;;;;4180680;28;20975;-68
2022/06/18 02:51:40;;;;;;;4.23;3.67;;;14.60;75.00;;;;;;4180595;28;20215;-68
2022/06/18 02:53:40;;;;;;;4.03;3.63;;;14.60;74.30;;;;;;4167822;28;20189;-68
2022/06/18 02:55:47;;;;;;;3.40;3.10;;;14.50;74.70;;;;;;4163194;28;20240;-68
2022/06/18 02:57:52;;;;;;;3.60;3.30;;;14.50;74.60;;;;;;4164122;28;20192;-68
2022/06/18 02:59:52;;;;;;;5.43;3.53;;;14.40;75.00;;;;;;4163898;28;20180;-68
2022/06/18 03:01:53;;;;;;;3.80;3.50;;;14.30;75.30;;;;;;4163973;28;20572;-68
2022/06/18 03:03:57;;;;;;;3.90;3.37;;;14.30;75.30;;;;;;4163987;28;20212;-68
2022/06/18 03:05:57;;;;;;;3.43;2.70;;;14.30;74.80;;;;;;4163010;28;20259;-67
2022/06/18 03:07:58;;;;;;;3.70;3.20;;;14.30;74.60;;;;;;4164086;28;20181;-68
2022/06/18 03:12:18;;;;;;;5.40;3.07;;;14.20;75.30;;;;;;4164281;28;20191;-68
2022/06/18 03:14:19;;;;;;;4.67;3.50;;;14.20;75.60;;;;;;4163745;28;20240;-68
2022/06/18 03:16:21;;;;;;;3.80;3.33;;;14.20;75.50;;;;;;4162825;28;20205;-68
2022/06/18 03:18:25;;;;;;;3.57;3.27;;;14.20;75.70;;;;;;4163689;28;20177;-68
2022/06/18 03:20:59;;;;;;;3.80;3.40;;;14.30;75.70;;;;;;4163386;28;20189;-68
2022/06/18 03:23:00;;;;;;;3.50;3.20;;;14.30;75.90;;;;;;4128856;28;20657;-68
2022/06/18 03:25:01;;;;;;;3.47;3.17;;;14.20;76.20;;;;;;4161598;28;20197;-69
2022/06/18 03:27:02;;;;;;;5.43;3.57;;;14.20;76.60;;;;;;4163029;28;20264;-68
2022/06/18 03:29:05;;;;;;;5.00;3.27;;;14.20;76.60;;;;;;4162830;28;20530;-68
2022/06/18 03:31:06;;;;;;;4.70;3.77;;;14.20;77.00;;;;;;4163428;28;20185;-68
2022/06/18 03:33:07;;;;;;;4.40;3.23;;;14.20;76.60;;;;;;4163464;28;20227;-68
2022/06/18 03:35:08;;;;;;;4.73;3.80;;;14.20;77.00;;;;;;4163058;28;20208;-68
2022/06/18 03:37:08;;;;;;;3.27;2.97;;;14.20;77.30;;;;;;4162772;28;20674;-68
2022/06/18 03:39:09;;;;;;;3.67;3.30;;;14.20;77.10;;;;;;4161918;28;20177;-69
2022/06/18 03:41:12;;;;;;;4.13;3.73;;;14.20;77.60;;;;;;4163394;28;20185;-68
2022/06/18 03:43:13;;;;;;;4.97;3.77;;;14.20;77.70;;;;;;4167625;28;20192;-68
2022/06/18 03:45:14;;;;;;;5.13;3.47;;;14.20;77.40;;;;;;4179738;28;20234;-68
2022/06/18 03:47:14;;;;;;;4.33;3.93;;;14.30;77.70;;;;;;4179056;28;20212;-68
2022/06/18 03:49:27;;;;;;;4.20;2.97;;;14.30;77.90;;;;;;4179852;28;20268;-68
2022/06/18 03:51:29;;;;;;;3.87;3.10;;;14.30;78.20;;;;;;4179653;28;20626;-68
2022/06/18 03:53:29;;;;;;;4.37;3.50;;;14.30;79.60;;;;;;4179777;28;20241;-68
2022/06/18 03:55:31;;;;;;;4.07;3.67;;;14.30;78.10;;;;;;4178980;28;20703;-68
2022/06/18 03:57:31;;;;;;;5.07;3.60;;;14.40;77.90;;;;;;4179760;28;21188;-68
2022/06/18 03:59:33;;;;;;;4.00;3.70;;;14.50;77.30;;;;;;4179420;28;20260;-69
2022/06/18 04:01:40;;;;;;;4.70;3.37;;;14.50;77.00;;;;;;4179648;28;20177;-68
2022/06/18 04:03:40;;;;;;;4.87;4.00;;;14.60;77.10;;;;;;4179450;28;20183;-68
2022/06/18 04:05:42;;;;;;;4.03;3.50;;;14.60;76.10;;;;;;4179027;28;20200;-68
2022/06/18 04:07:43;;;;;;;3.93;3.50;;;14.60;75.90;;;;;;4179480;28;20211;-68
2022/06/18 04:09:44;;;;;;;3.47;3.17;;;14.70;75.80;;;;;;4179365;28;20252;-69
2022/06/18 04:11:44;;;;;;;4.43;3.40;;;14.70;75.40;;;;;;4180288;28;20199;-68
2022/06/18 04:13:45;;;;;;;5.13;3.80;;;14.70;76.50;;;;;;4179994;28;20195;-68
2022/06/18 04:15:47;;;;;;;4.03;3.73;;;14.70;77.00;;;;;;4179139;28;20261;-69
2022/06/18 04:17:48;;;;;;;3.43;2.97;;;14.70;77.30;;;;;;4179744;28;20188;-69
2022/06/18 04:19:49;;;;;;;4.30;3.50;;;14.80;77.30;;;;;;4179206;28;20187;-68
2022/06/18 04:21:50;;;;;;;4.47;4.07;;;14.70;77.10;;;;;;4179356;28;20184;-68
2022/06/18 04:23:50;;;;;;;3.83;3.53;;;14.80;76.90;;;;;;4179254;28;20188;-68
2022/06/18 04:25:51;;;;;;;3.83;3.20;;;14.90;76.80;;;;;;4178155;28;20595;-68
2022/06/18 04:27:56;;;;;;;4.40;3.70;;;14.90;76.20;;;;;;4179010;28;20177;-68
2022/06/18 04:29:57;;;;;;;5.17;3.90;;;14.80;75.70;;;;;;4179206;28;20188;-69
2022/06/18 04:31:59;;;;;;;3.90;3.60;;;14.90;76.00;;;;;;4179071;28;20181;-69
2022/06/18 04:33:59;;;;;;;3.57;3.27;;;14.90;75.80;;;;;;4179154;28;20555;-69
2022/06/18 04:36:00;;;;;;;4.03;3.63;;;15.00;75.80;;;;;;4178258;28;20278;-68
2022/06/18 04:38:01;;;;;;;4.37;3.80;;;15.00;75.90;;;;;;4179155;28;20164;-69
2022/06/18 04:40:04;;;;;;;5.80;3.60;;;15.00;75.80;;;;;;4178776;28;20177;-69
2022/06/18 04:42:04;;;;;;;4.27;3.60;;;15.10;75.80;;;;;;4178350;28;20183;-69
2022/06/18 04:44:05;;;;;;;3.93;3.53;;;15.10;75.60;;;;;;4179105;28;20592;-68
2022/06/18 04:46:05;;;;;;;7.57;3.57;;;15.10;76.40;;;;;;4166097;28;20200;-68
2022/06/18 04:48:06;;;;;;;4.10;3.47;;;15.10;76.60;;;;;;4162434;28;20173;-69
2022/06/18 04:50:15;;;;;;;4.20;3.80;;;15.10;76.00;;;;;;4162474;28;20183;-67
2022/06/18 04:52:16;;;;;;;5.07;3.90;;;15.10;76.10;;;;;;4162566;28;20222;-69
2022/06/18 04:54:16;;;;;;;4.13;3.73;;;15.20;75.50;;;;;;4162257;28;20216;-68
2022/06/18 04:56:17;;;;;;;4.13;3.73;;;15.30;76.30;;;;;;4161591;28;20192;-69
2022/06/18 04:58:17;;;;;;;4.30;4.00;;;15.40;75.70;;;;;;4162361;28;20181;-68
2022/06/18 05:00:19;;;;;;;4.03;3.73;;;15.40;75.40;;;;;;4162541;28;20184;-68
2022/06/18 05:02:21;;;;;;;4.33;3.20;;;15.40;75.00;;;;;;4162265;28;20192;-68
2022/06/18 05:04:21;;;;;;;4.20;3.70;;;15.40;75.70;;;;;;4162077;28;20173;-68
2022/06/18 05:06:22;;;;;;;4.93;3.73;;;15.50;76.10;;;;;;4161423;28;20215;-68
2022/06/18 05:08:23;;;;;;;5.17;3.90;;;15.50;75.90;;;;;;4162557;28;20263;-68
2022/06/18 05:10:24;;;;;;;4.00;3.60;;;15.60;75.60;;;;;;4162730;28;20161;-69
2022/06/18 05:12:24;;;;;;;4.53;4.10;;;15.70;74.90;;;;;;4162491;28;20675;-68
2022/06/18 05:14:25;;;;;;;4.23;3.83;;;15.80;75.20;;;;;;4162345;28;20769;-68
2022/06/18 05:16:26;;;;;;;3.97;3.67;;;15.90;74.60;;;;;;4161661;28;20193;-69
2022/06/18 05:18:30;;;;;;;4.17;3.77;;;15.90;74.00;;;;;;4162566;28;20207;-69
2022/06/18 05:20:31;;;;;;;3.67;3.37;;;16.00;74.50;;;;;;4161964;28;20255;-70
2022/06/18 05:22:32;;;;;;;4.23;3.83;;;16.10;74.00;;;;;;4162280;28;20177;-68
2022/06/18 05:24:32;;;;;;;3.83;3.53;;;16.10;75.10;;;;;;4162424;28;20212;-68
2022/06/18 05:26:33;;;;;;;4.17;3.70;;;16.20;73.80;;;;;;4161651;28;20826;-69
2022/06/18 05:28:33;;;;;;;5.27;4.00;;;16.30;73.60;;;;;;4162395;28;20663;-69
2022/06/18 05:30:34;;;;;;;4.13;3.53;;;16.30;73.30;;;;;;4162048;28;20181;-69
2022/06/18 05:32:34;;;;;;;3.97;3.60;;;16.50;73.10;;;;;;4162223;28;20185;-68
2022/06/18 05:34:35;;;;;;;4.93;3.60;;;16.40;73.40;;;;;;4162149;28;20227;-68
2022/06/18 05:36:36;;;;;;;3.80;3.50;;;16.50;73.60;;;;;;4161371;28;20213;-69
2022/06/18 05:38:37;;;;;;;4.60;4.20;;;16.70;72.50;;;;;;4178409;28;20667;-69
2022/06/18 05:40:37;;;;;;;3.60;3.30;;;16.70;72.20;;;;;;4178408;28;20229;-68
2022/06/18 05:42:38;;;;;;;4.43;3.70;;;16.80;70.50;;;;;;4178342;28;20180;-68
2022/06/18 05:44:38;;;;;;;3.67;3.17;;;16.90;70.80;;;;;;4178182;28;20591;-68
2022/06/18 05:46:39;;;;;;;4.10;3.70;;;16.90;69.70;;;;;;4177452;28;20204;-68
2022/06/18 05:48:40;;;;;;;3.90;3.50;;;17.00;69.60;;;;;;4178348;28;20644;-68
2022/06/18 05:50:40;;;;;;;4.10;3.70;;;17.10;69.00;;;;;;4178650;28;20223;-68
2022/06/18 05:52:41;;;;;;;4.50;3.77;;;17.20;68.90;;;;;;4179975;28;20183;-68
2022/06/18 05:54:42;;;;;;;4.97;3.70;;;17.30;69.10;;;;;;4181360;28;20592;-68
2022/06/18 05:56:42;;;;;;;4.03;3.67;;;17.40;67.60;;;;;;4180573;28;20184;-68
2022/06/18 05:58:43;;;;;;;4.10;3.80;;;17.40;69.20;;;;;;4181270;28;20188;-68
2022/06/18 06:00:44;;;;;;;4.03;3.67;;;17.50;69.40;;;;;;4181486;28;20640;-69
2022/06/18 06:02:44;;;;;;;4.00;3.70;;;17.50;68.30;;;;;;4181267;28;20195;-68
2022/06/18 06:04:46;;;;;;;3.93;3.63;;;17.70;67.30;;;;;;4181074;28;20196;-68
2022/06/18 06:06:46;;;;;;;5.23;3.80;;;17.70;68.20;;;;;;4180471;28;20176;-68
2022/06/18 06:08:47;;;;;;;4.03;3.63;;;17.80;68.00;;;;;;4180990;28;20184;-68
2022/06/18 06:13:08;;;;;;;3.97;3.47;;;18.00;66.30;;;;;;4181105;28;20575;-68
2022/06/18 06:15:10;;;;;;;3.60;3.30;;;18.00;65.90;;;;;;4180977;28;20234;-68
2022/06/18 06:17:18;;;;;;;6.47;3.27;;;18.20;65.40;;;;;;4180586;28;20302;-68
2022/06/18 06:19:19;;;;;;;3.60;3.30;;;18.30;64.00;;;;;;4180769;28;20668;-68
2022/06/18 06:21:19;;;;;;;3.80;3.50;;;18.40;62.50;;;;;;4180892;28;20200;-68
2022/06/18 06:23:20;;;;;;;3.57;3.23;;;18.50;63.60;;;;;;4181088;28;20242;-68
2022/06/18 06:25:21;;;;;;;4.27;3.23;;;18.50;62.90;;;;;;4179985;28;20279;-68
2022/06/18 06:27:21;;;;;;;3.43;3.00;;;18.50;62.80;;;;;;4180701;28;20592;-68
2022/06/18 06:29:22;;;;;;;5.13;3.23;;;18.70;63.10;;;;;;4180791;28;20225;-68
2022/06/18 06:31:22;;;;;;;3.73;3.30;;;18.90;61.50;;;;;;4180589;28;20187;-69
2022/06/18 06:33:23;;;;;;;4.00;3.20;;;19.00;61.40;;;;;;4180724;28;20176;-68
2022/06/18 06:35:23;;;;;;;3.40;3.00;;;19.10;61.10;;;;;;4179649;28;20666;-68
2022/06/18 06:37:24;;;;;;;4.27;3.70;;;19.30;60.70;;;;;;4180497;28;20277;-69
2022/06/18 06:39:24;;;;;;;4.30;3.80;;;19.50;61.80;;;;;;4180425;28;20833;-69
2022/06/18 06:41:28;;;;;;;3.90;3.60;;;19.60;62.60;;;;;;4180552;28;20215;-69
2022/06/18 06:43:28;;;;;;;4.20;3.57;;;19.70;63.10;;;;;;4180654;28;20242;-69
2022/06/18 06:45:31;;;;;;;3.30;3.00;;;19.90;61.70;;;;;;4179759;28;20212;-69
2022/06/18 06:47:32;;;;;;;3.77;3.37;;;19.90;59.30;;;;;;4180684;28;20215;-69
2022/06/18 06:49:32;;;;;;;5.77;2.90;;;20.20;56.70;;;;;;4169578;28;20662;-69
2022/06/18 06:51:36;;;;;;;3.30;3.00;;;20.60;52.60;;;;;;4163736;28;20177;-69
2022/06/18 06:53:37;;;;;;;3.23;2.83;;;20.90;51.40;;;;;;4163756;28;20221;-69
2022/06/18 06:57:58;;;;;;;4.27;3.00;;;21.20;50.90;;;;;;4163866;28;20204;-69
2022/06/18 06:59:58;;;;;;;2.90;2.70;;;21.50;47.90;;;;;;4163933;28;20173;-69
2022/06/18 07:02:02;;;;;;;3.20;2.73;;;21.80;47.70;;;;;;4163729;28;20181;-69
2022/06/18 07:04:05;;;;;;;2.83;2.63;;;22.00;48.10;;;;;;4162951;28;20173;-69
2022/06/18 07:06:05;;;;;;;3.17;2.87;;;22.20;46.50;;;;;;4162873;28;20679;-69
2022/06/18 07:08:06;;;;;;;4.07;2.70;;;22.40;44.40;;;;;;4163789;28;20174;-69
2022/06/18 07:10:08;;;;;;;3.80;2.90;;;22.50;43.80;;;;;;4163752;28;20259;-69
2022/06/18 07:12:09;;;;;;;3.30;2.83;;;22.70;42.80;;;;;;4163967;28;20181;-69
2022/06/18 07:14:09;;;;;;;3.83;2.50;;;22.90;42.70;;;;;;4163741;28;21042;-69
2022/06/18 07:16:12;;;;;;;2.57;2.37;;;22.90;43.70;;;;;;4162975;28;20339;-69
2022/06/18 07:18:18;;;;;;;3.80;2.50;;;22.90;44.20;;;;;;4163282;28;20264;-69
2022/06/18 07:20:20;;;;;;;3.20;2.70;;;23.20;42.00;;;;;;4163470;28;20207;-69
2022/06/18 07:22:20;;;;;;;4.47;3.53;;;23.30;41.30;;;;;;4163569;28;20181;-69
2022/06/18 07:24:21;;;;;;;3.13;2.83;;;23.50;41.00;;;;;;4163232;28;20188;-69
2022/06/18 07:26:22;;;;;;;4.23;2.67;;;23.60;38.40;;;;;;4162616;28;20251;-69
2022/06/18 07:28:23;;;;;;;3.33;3.10;;;23.80;37.80;;;;;;4163446;28;20552;-69
2022/06/18 07:30:24;;;;;;;3.03;2.67;;;23.90;37.20;;;;;;4163299;28;20181;-69
2022/06/18 07:32:25;;;;;;;2.60;2.40;;;24.10;36.10;;;;;;4163301;28;20722;-69
2022/06/18 07:34:25;;;;;;;3.50;2.53;;;24.30;33.30;;;;;;4163127;28;20334;-69
2022/06/18 07:36:26;;;;;;;2.93;2.73;;;24.40;32.50;;;;;;4162537;28;20295;-69
2022/06/18 07:38:27;;;;;;;3.13;2.83;;;24.50;31.80;;;;;;4163190;28;20181;-69
2022/06/18 07:40:34;;;;;;;4.40;4.10;;;24.60;32.60;;;;;;4163305;28;20524;-69
2022/06/18 07:42:35;;;;;;;3.47;3.17;;;24.70;32.70;;;;;;4172197;28;20632;-69
2022/06/18 07:44:36;;;;;;;13.83;13.07;;;24.90;35.00;;;;;;4179556;28;20191;-69
2022/06/18 07:46:36;;;;;;;3.33;3.03;;;25.00;36.40;;;;;;4178845;28;20204;-69
2022/06/18 07:48:39;;;;;;;3.47;3.20;;;25.10;35.70;;;;;;4179702;28;20564;-69
2022/06/18 07:50:58;;;;;;;4.40;3.70;;;25.20;34.70;;;;;;4179599;28;20183;-69
2022/06/18 07:52:58;;;;;;;11.73;11.10;;;25.40;33.80;;;;;;4179568;28;20238;-68
2022/06/18 07:54:59;;;;;;;3.60;2.60;;;25.40;33.70;;;;;;4179286;28;20722;-69
2022/06/18 07:56:59;;;;;;;11.33;10.60;;;25.60;33.30;;;;;;4178829;28;20678;-69
2022/06/18 07:59:00;;;;;;;5.70;5.40;;;25.60;34.50;;;;;;4178199;28;20192;-68
2022/06/18 08:01:01;;;;;;;3.30;3.00;;;25.70;33.50;;;;;;4179401;28;20176;-69
2022/06/18 08:03:05;;;;;;;2.97;2.77;;;25.60;32.50;;;;;;4179258;28;20181;-69
2022/06/18 08:05:07;;;;;;;4.33;2.70;;;25.70;32.50;;;;;;4178934;28;20215;-68
2022/06/18 08:07:08;;;;;;;4.73;4.33;;;25.70;32.00;;;;;;4178655;28;20189;-69
2022/06/18 08:09:09;;;;;;;7.93;7.53;;;25.70;31.80;;;;;;4179219;28;20230;-69
2022/06/18 08:11:12;;;;;;;5.60;5.20;;;25.70;32.70;;;;;;4179181;28;20218;-67
2022/06/18 08:13:13;;;;;;;2.57;2.37;;;25.60;32.30;;;;;;4179153;28;20628;-69
2022/06/18 08:15:14;;;;;;;2.70;2.50;;;25.80;31.80;;;;;;4178703;28;20216;-69
2022/06/18 08:17:14;;;;;;;51.07;48.23;;;26.00;31.70;;;;;;4178643;28;20184;-69
2022/06/18 08:19:15;;;;;;;15.23;14.20;;;26.10;29.80;;;;;;4179210;28;20184;-68
2022/06/18 08:21:21;;;;;;;3.77;2.40;;;26.20;29.60;;;;;;4179005;28;20656;-68
2022/06/18 08:23:22;;;;;;;8.00;3.47;;;26.00;28.80;;;;;;4177265;28;20682;-68
2022/06/18 08:25:25;;;;;;;4.07;3.43;;;26.00;29.60;;;;;;4178640;28;20211;-68
2022/06/18 08:27:26;;;;;;;9.90;9.17;;;26.20;29.90;;;;;;4179178;28;20241;-68
2022/06/18 08:29:27;;;;;;;3.13;2.23;;;26.30;29.00;;;;;;4178996;28;20274;-68
2022/06/18 08:31:28;;;;;;;5.13;3.90;;;26.40;28.20;;;;;;4173375;28;20188;-68
2022/06/18 08:33:29;;;;;;;2.57;2.37;;;26.60;29.80;;;;;;4171930;28;20895;-68
2022/06/18 08:35:31;;;;;;;6.30;5.80;;;26.70;28.50;;;;;;4169452;28;20215;-68
2022/06/18 08:37:32;;;;;;;45.27;42.63;;;26.80;31.10;;;;;;4164915;28;20181;-68
2022/06/18 08:39:33;;;;;;;11.43;10.73;;;26.60;28.00;;;;;;4162372;28;20184;-68
2022/06/18 08:42:00;;;;;;;5.47;2.83;;;26.60;26.40;;;;;;4162550;28;20653;-68
2022/06/18 08:44:23;;;;;;;2.97;2.80;;;26.70;27.30;;;;;;4176883;28;20180;-68
2022/06/18 08:46:54;;;;;;;2.13;1.93;;;26.90;28.20;;;;;;4178281;28;20295;-67
2022/06/18 08:49:22;;;;;;;27.40;25.80;;;27.10;26.20;;;;;;4179181;28;20184;-67
2022/06/18 08:51:35;;;;;;;46.63;44.43;;;26.90;26.90;;;;;;4170213;28;20184;-67
2022/06/18 08:53:53;;;;;;;2.27;2.10;;;26.80;27.00;;;;;;4170317;28;20183;-67
2022/06/18 08:56:08;;;;;;;80.87;76.07;;;27.10;27.60;;;;;;4169438;28;20231;-67
2022/06/18 08:58:19;;;;;;;2.30;2.10;;;27.00;26.00;;;;;;4164979;28;20188;-67
2022/06/18 09:00:55;;;;;;;3.73;1.90;;;26.90;25.40;;;;;;4162280;28;20165;-67
2022/06/18 09:03:03;;;;;;;1.60;1.50;;;27.00;26.40;;;;;;4158255;28;20207;-68
2022/06/18 09:05:41;;;;;;;16.70;15.53;;;27.20;24.90;;;;;;4161952;28;20305;-67
2022/06/18 09:08:08;;;;;;;10.00;9.40;;;27.50;25.40;;;;;;4162320;28;20652;-67
2022/06/18 09:10:35;;;;;;;4.00;3.70;;;27.40;24.60;;;;;;4162410;28;20184;-67
2022/06/18 09:12:41;;;;;;;8.73;8.20;;;27.30;24.10;;;;;;4152148;28;20193;-68
2022/06/18 09:15:21;;;;;;;3.00;2.10;;;27.40;24.90;;;;;;4162428;28;20292;-67
2022/06/18 09:17:34;;;;;;;5.43;2.33;;;27.30;25.30;;;;;;4157536;28;20193;-67
2022/06/18 09:19:36;;;;;;;13.17;12.23;;;27.50;26.00;;;;;;4162650;28;20247;-67
2022/06/18 09:21:42;;;;;;;8.67;8.10;;;27.70;26.20;;;;;;4162242;28;20200;-66
2022/06/18 09:23:52;;;;;;;3.37;2.77;;;27.80;26.00;;;;;;4162523;28;20173;-67
2022/06/18 09:25:55;;;;;;;2.60;2.40;;;27.90;25.50;;;;;;4161768;28;20196;-66
2022/06/18 09:28:03;;;;;;;18.20;16.87;;;28.10;25.00;;;;;;4164232;28;20271;-66
2022/06/18 09:30:28;;;;;;;8.57;8.03;;;28.10;23.90;;;;;;4165858;28;20204;-68
2022/06/18 09:32:55;;;;;;;15.67;14.57;;;28.10;24.40;;;;;;4165509;28;20582;-68
2022/06/18 09:35:04;;;;;;;3.80;3.20;;;28.10;24.50;;;;;;4165163;28;20882;-68
2022/06/18 09:37:12;;;;;;;82.17;77.43;;;28.00;25.80;;;;;;4167808;28;20192;-68
2022/06/18 09:39:20;;;;;;;5.20;4.90;;;28.10;24.60;;;;;;4165302;28;20181;-68
2022/06/18 09:41:28;;;;;;;18.17;16.77;;;28.00;24.50;;;;;;4165162;28;20183;-68
2022/06/18 09:44:00;;;;;;;6.47;2.80;;;28.40;23.30;;;;;;4171835;28;20553;-68
2022/06/18 09:46:09;;;;;;;4.63;2.57;;;28.70;23.30;;;;;;4181030;28;20199;-68
2022/06/18 09:48:10;;;;;;;3.97;3.27;;;28.70;23.10;;;;;;4181538;28;20287;-68
2022/06/18 09:50:27;;;;;;;3.93;1.80;;;28.80;22.50;;;;;;4181450;28;20202;-69
2022/06/18 09:52:34;;;;;;;5.90;2.33;;;28.90;22.10;;;;;;4181530;28;20228;-68
2022/06/18 09:54:46;;;;;;;10.63;9.63;;;29.10;22.70;;;;;;4181283;28;20257;-68
2022/06/18 09:56:50;;;;;;;7.10;6.60;;;29.30;22.70;;;;;;4181282;28;20181;-68
2022/06/18 09:58:58;;;;;;;6.10;2.40;;;29.20;21.50;;;;;;4180692;28;20242;-67
2022/06/18 10:01:00;;;;;;;66.90;62.23;;;29.20;22.30;;;;;;4180684;28;20179;-68
2022/06/18 10:03:04;;;;;;;5.10;2.60;;;29.70;20.90;;;;;;4181167;28;20183;-68
2022/06/18 10:07:31;;;;;;;4.30;2.03;;;29.60;21.80;;;;;;4181492;28;20720;-67
2022/06/18 10:09:41;;;;;;;125.25;116.57;;;29.80;22.20;;;;;;4181322;28;20187;-67
2022/06/18 10:11:42;;;;;;;5.80;5.13;;;29.90;21.60;;;;;;4181304;28;20176;-68
2022/06/18 10:13:48;;;;;;;11.85;10.77;;;30.20;22.00;;;;;;4181567;28;20180;-67
2022/06/18 10:15:49;;;;;;;48.58;45.05;;;30.10;21.80;;;;;;4180454;28;20212;-67
2022/06/18 10:18:07;;;;;;;9.98;8.98;;;29.70;22.20;;;;;;4181149;28;20655;-68
2022/06/18 10:20:27;;;;;;;5.57;3.30;;;29.90;21.30;;;;;;4181131;28;20719;-67
2022/06/18 10:22:47;;;;;;;6.03;4.68;;;30.00;21.40;;;;;;4180987;28;20191;-68
2022/06/18 10:25:13;;;;;;;11.68;8.52;;;30.00;21.30;;;;;;4181118;28;20191;-68
2022/06/18 10:27:25;;;;;;;12.10;8.90;;;30.00;21.50;;;;;;4170218;28;20677;-67
2022/06/18 10:29:37;;;;;;;5.82;2.63;;;30.20;20.90;;;;;;4181167;28;20210;-68
2022/06/18 10:32:13;;;;;;;5.82;3.03;;;30.30;20.50;;;;;;4181214;28;20201;-68
2022/06/18 10:34:23;;;;;;;25.77;23.23;;;31.00;21.30;;;;;;4180942;28;20195;-68
2022/06/18 10:36:35;;;;;;;4.85;2.33;;;31.60;19.90;;;;;;4179952;28;20199;-67
2022/06/18 10:38:57;;;;;;;18.80;11.88;;;32.10;20.70;;;;;;4166482;28;20684;-67
2022/06/18 10:41:07;;;;;;;21.08;19.05;;;31.90;19.70;;;;;;4178637;28;20222;-66
2022/06/18 10:43:33;;;;;;;5.88;3.00;;;32.00;19.10;;;;;;4176880;28;20238;-67
2022/06/18 10:45:40;;;;;;;5.55;3.22;;;32.00;20.70;;;;;;4163310;28;20203;-67
2022/06/18 10:47:45;;;;;;;7.82;3.90;;;32.70;18.60;;;;;;4164136;28;20168;-68
2022/06/18 10:49:58;;;;;;;55.40;50.72;;;33.40;18.60;;;;;;4164038;28;20177;-67
2022/06/18 10:52:00;;;;;;;14.10;12.88;;;32.60;19.30;;;;;;4164005;28;20238;-66
2022/06/18 10:54:01;;;;;;;10.70;4.00;;;32.60;19.80;;;;;;4164410;28;20532;-67
2022/06/18 10:56:13;;;;;;;14.45;6.57;;;32.90;19.60;;;;;;4163350;28;20262;-67
2022/06/18 10:58:15;;;;;;;54.13;49.65;;;32.90;19.00;;;;;;4164059;28;20184;-67
2022/06/18 11:00:27;;;;;;;8.98;4.07;;;32.70;19.60;;;;;;4164096;28;20170;-67
2022/06/18 11:02:35;;;;;;;13.15;4.68;;;33.30;19.50;;;;;;4163954;28;20177;-67